sensor_id;sensor_type;location;lat;lon;timestamp;temperature;humidity
41922;DHT22;27609;51.002;5.354;2022-07-29T00:00:58;18.10;99.90
41922;DHT22;27609;51.002;5.354;2022-07-29T00:03:24;17.80;99.90
41922;DHT22;27609;51.002;5.354;2022-07-29T00:05:50;18.00;99.90
41922;DHT22;27609;51.002;5.354;2022-07-29T00:08:18;18.00;99.90
41922;DHT22;27609;51.002;5.354;2022-07-29T00:10:45;18.00;99.90
41922;DHT22;27609;51.002;5.354;2022-07-29T00:13:11;18.10;99.90
41922;DHT22;27609;51.002;5.354;2022-07-29T00:15:36;18.10;99.90
41922;DHT22;27609;51.002;5.354;2022-07-29T00:18:03;18.10;99.90
41922;DHT22;27609;51.002;5.354;2022-07-29T00:20:29;18.20;99.90
41922;DHT22;27609;51.002;5.354;2022-07-29T00:22:55;18.30;99.90
41922;DHT22;27609;51.002;5.354;2022-07-29T00:25:21;18.40;99.90
41922;DHT22;27609;51.002;5.354;2022-07-29T00:27:47;18.30;99.90
41922;DHT22;27609;51.002;5.354;2022-07-29T00:30:13;18.40;99.90
41922;DHT22;27609;51.002;5.354;2022-07-29T00:32:39;18.30;99.90
41922;DHT22;27609;51.002;5.354;2022-07-29T00:35:05;18.30;99.90
41922;DHT22;27609;51.002;5.354;2022-07-29T00:37:50;18.40;99.90
41922;DHT22;27609;51.002;5.354;2022-07-29T00:40:16;18.40;99.90
41922;DHT22;27609;51.002;5.354;2022-07-29T00:42:46;18.40;99.90
41922;DHT22;27609;51.002;5.354;2022-07-29T00:45:13;18.50;99.90
41922;DHT22;27609;51.002;5.354;2022-07-29T00:47:39;18.40;99.90
41922;DHT22;27609;51.002;5.354;2022-07-29T00:50:06;18.30;99.90
41922;DHT22;27609;51.002;5.354;2022-07-29T00:52:33;18.40;99.90
41922;DHT22;27609;51.002;5.354;2022-07-29T00:55:02;18.40;99.90
41922;DHT22;27609;51.002;5.354;2022-07-29T00:57:28;18.30;99.90
41922;DHT22;27609;51.002;5.354;2022-07-29T00:59:54;18.30;99.90
41922;DHT22;27609;51.002;5.354;2022-07-29T01:02:21;18.00;99.90
41922;DHT22;27609;51.002;5.354;2022-07-29T01:04:47;18.00;99.90
41922;DHT22;27609;51.002;5.354;2022-07-29T01:07:13;18.10;99.90
41922;DHT22;27609;51.002;5.354;2022-07-29T01:09:40;18.00;99.90
41922;DHT22;27609;51.002;5.354;2022-07-29T01:12:08;18.00;99.90
41922;DHT22;27609;51.002;5.354;2022-07-29T01:14:34;18.20;99.90
41922;DHT22;27609;51.002;5.354;2022-07-29T01:17:13;17.90;99.90
41922;DHT22;27609;51.002;5.354;2022-07-29T01:19:52;17.80;99.90
41922;DHT22;27609;51.002;5.354;2022-07-29T01:30:58;17.60;99.90
41922;DHT22;27609;51.002;5.354;2022-07-29T01:33:26;17.50;99.90
41922;DHT22;27609;51.002;5.354;2022-07-29T01:36:16;17.50;99.90
41922;DHT22;27609;51.002;5.354;2022-07-29T01:38:45;17.60;99.90
41922;DHT22;27609;51.002;5.354;2022-07-29T01:41:16;17.70;99.90
41922;DHT22;27609;51.002;5.354;2022-07-29T01:43:51;17.80;99.90
41922;DHT22;27609;51.002;5.354;2022-07-29T01:46:34;17.90;99.90
41922;DHT22;27609;51.002;5.354;2022-07-29T01:49:21;18.00;99.90
41922;DHT22;27609;51.002;5.354;2022-07-29T01:54:38;17.60;99.90
41922;DHT22;27609;51.002;5.354;2022-07-29T01:57:09;17.60;99.90
41922;DHT22;27609;51.002;5.354;2022-07-29T01:59:37;17.50;99.90
41922;DHT22;27609;51.002;5.354;2022-07-29T02:02:04;17.30;99.90
41922;DHT22;27609;51.002;5.354;2022-07-29T02:04:35;17.00;99.90
41922;DHT22;27609;51.002;5.354;2022-07-29T02:07:05;17.00;99.90
41922;DHT22;27609;51.002;5.354;2022-07-29T02:09:34;17.20;99.90
41922;DHT22;27609;51.002;5.354;2022-07-29T02:12:03;17.50;99.90
41922;DHT22;27609;51.002;5.354;2022-07-29T02:14:34;17.50;99.90
41922;DHT22;27609;51.002;5.354;2022-07-29T02:17:02;17.60;99.90
41922;DHT22;27609;51.002;5.354;2022-07-29T02:19:30;17.60;99.90
41922;DHT22;27609;51.002;5.354;2022-07-29T02:21:58;17.50;99.90
41922;DHT22;27609;51.002;5.354;2022-07-29T02:24:25;17.10;99.90
41922;DHT22;27609;51.002;5.354;2022-07-29T02:26:54;17.10;99.90
41922;DHT22;27609;51.002;5.354;2022-07-29T02:29:24;17.10;99.90
41922;DHT22;27609;51.002;5.354;2022-07-29T02:31:51;17.20;99.90
41922;DHT22;27609;51.002;5.354;2022-07-29T02:34:20;17.30;99.90
41922;DHT22;27609;51.002;5.354;2022-07-29T02:36:46;17.30;99.90
41922;DHT22;27609;51.002;5.354;2022-07-29T02:39:15;17.40;99.90
41922;DHT22;27609;51.002;5.354;2022-07-29T02:44:12;17.40;99.90
41922;DHT22;27609;51.002;5.354;2022-07-29T02:46:50;17.30;99.90
41922;DHT22;27609;51.002;5.354;2022-07-29T02:49:47;17.40;99.90
41922;DHT22;27609;51.002;5.354;2022-07-29T02:52:27;17.60;99.90
41922;DHT22;27609;51.002;5.354;2022-07-29T02:54:58;17.60;99.90
41922;DHT22;27609;51.002;5.354;2022-07-29T02:59:57;17.70;99.90
41922;DHT22;27609;51.002;5.354;2022-07-29T03:02:25;17.40;99.90
41922;DHT22;27609;51.002;5.354;2022-07-29T03:04:52;17.40;99.90
41922;DHT22;27609;51.002;5.354;2022-07-29T03:07:20;17.40;99.90
41922;DHT22;27609;51.002;5.354;2022-07-29T03:09:46;17.40;99.90
41922;DHT22;27609;51.002;5.354;2022-07-29T03:12:14;17.40;99.90
41922;DHT22;27609;51.002;5.354;2022-07-29T03:14:40;17.40;99.90
41922;DHT22;27609;51.002;5.354;2022-07-29T03:17:07;17.40;99.90
41922;DHT22;27609;51.002;5.354;2022-07-29T03:19:35;17.60;99.90
41922;DHT22;27609;51.002;5.354;2022-07-29T03:22:01;17.60;99.90
41922;DHT22;27609;51.002;5.354;2022-07-29T03:24:33;17.70;99.90
41922;DHT22;27609;51.002;5.354;2022-07-29T03:26:59;17.90;99.90
41922;DHT22;27609;51.002;5.354;2022-07-29T03:29:26;18.00;99.90
41922;DHT22;27609;51.002;5.354;2022-07-29T03:31:52;18.00;99.90
41922;DHT22;27609;51.002;5.354;2022-07-29T03:34:18;17.70;99.90
41922;DHT22;27609;51.002;5.354;2022-07-29T03:36:44;17.60;99.90
41922;DHT22;27609;51.002;5.354;2022-07-29T03:39:11;17.50;99.90
41922;DHT22;27609;51.002;5.354;2022-07-29T03:41:38;17.60;99.90
41922;DHT22;27609;51.002;5.354;2022-07-29T03:44:07;17.70;99.90
41922;DHT22;27609;51.002;5.354;2022-07-29T03:46:35;17.50;99.90
41922;DHT22;27609;51.002;5.354;2022-07-29T03:49:03;17.40;99.90
41922;DHT22;27609;51.002;5.354;2022-07-29T03:51:29;17.40;99.90
41922;DHT22;27609;51.002;5.354;2022-07-29T03:53:56;17.30;99.90
41922;DHT22;27609;51.002;5.354;2022-07-29T03:56:23;17.10;99.90
41922;DHT22;27609;51.002;5.354;2022-07-29T03:58:51;17.10;99.90
41922;DHT22;27609;51.002;5.354;2022-07-29T04:01:19;16.90;99.90
41922;DHT22;27609;51.002;5.354;2022-07-29T04:03:45;17.10;99.90
41922;DHT22;27609;51.002;5.354;2022-07-29T04:06:12;17.10;99.90
41922;DHT22;27609;51.002;5.354;2022-07-29T04:08:38;17.30;99.90
41922;DHT22;27609;51.002;5.354;2022-07-29T04:11:04;17.40;99.90
41922;DHT22;27609;51.002;5.354;2022-07-29T04:13:31;17.50;99.90
41922;DHT22;27609;51.002;5.354;2022-07-29T04:15:57;17.70;99.90
41922;DHT22;27609;51.002;5.354;2022-07-29T04:18:23;17.80;99.90
41922;DHT22;27609;51.002;5.354;2022-07-29T04:20:49;17.80;99.90
41922;DHT22;27609;51.002;5.354;2022-07-29T04:23:15;17.80;99.90
41922;DHT22;27609;51.002;5.354;2022-07-29T04:25:42;18.00;99.90
41922;DHT22;27609;51.002;5.354;2022-07-29T04:28:09;17.90;99.90
41922;DHT22;27609;51.002;5.354;2022-07-29T04:30:36;17.80;99.90
41922;DHT22;27609;51.002;5.354;2022-07-29T04:33:04;17.40;99.90
41922;DHT22;27609;51.002;5.354;2022-07-29T04:35:33;17.20;99.90
41922;DHT22;27609;51.002;5.354;2022-07-29T04:37:59;17.40;99.90
41922;DHT22;27609;51.002;5.354;2022-07-29T04:40:25;17.60;99.90
41922;DHT22;27609;51.002;5.354;2022-07-29T04:42:51;17.80;99.90
41922;DHT22;27609;51.002;5.354;2022-07-29T04:45:17;17.90;99.90
41922;DHT22;27609;51.002;5.354;2022-07-29T04:47:42;18.00;99.90
41922;DHT22;27609;51.002;5.354;2022-07-29T04:50:09;18.50;99.90
41922;DHT22;27609;51.002;5.354;2022-07-29T04:52:36;18.00;99.90
41922;DHT22;27609;51.002;5.354;2022-07-29T04:55:04;18.00;99.90
41922;DHT22;27609;51.002;5.354;2022-07-29T04:57:30;18.20;99.90
41922;DHT22;27609;51.002;5.354;2022-07-29T04:59:56;18.10;99.90
41922;DHT22;27609;51.002;5.354;2022-07-29T05:02:22;18.20;99.90
41922;DHT22;27609;51.002;5.354;2022-07-29T05:04:48;18.10;99.90
41922;DHT22;27609;51.002;5.354;2022-07-29T05:07:14;18.10;99.90
41922;DHT22;27609;51.002;5.354;2022-07-29T05:09:40;18.20;99.90
41922;DHT22;27609;51.002;5.354;2022-07-29T05:12:06;18.00;99.90
41922;DHT22;27609;51.002;5.354;2022-07-29T05:14:32;17.80;99.90
41922;DHT22;27609;51.002;5.354;2022-07-29T05:16:58;17.70;99.90
41922;DHT22;27609;51.002;5.354;2022-07-29T05:19:24;17.80;99.90
41922;DHT22;27609;51.002;5.354;2022-07-29T05:21:50;17.80;99.90
41922;DHT22;27609;51.002;5.354;2022-07-29T05:24:16;17.90;99.90
41922;DHT22;27609;51.002;5.354;2022-07-29T05:26:42;17.90;99.90
41922;DHT22;27609;51.002;5.354;2022-07-29T05:29:09;18.00;99.90
41922;DHT22;27609;51.002;5.354;2022-07-29T05:31:35;17.90;99.90
41922;DHT22;27609;51.002;5.354;2022-07-29T05:34:00;18.00;99.90
41922;DHT22;27609;51.002;5.354;2022-07-29T05:36:26;17.90;99.90
41922;DHT22;27609;51.002;5.354;2022-07-29T05:38:52;17.90;99.90
41922;DHT22;27609;51.002;5.354;2022-07-29T05:41:19;17.90;99.90
41922;DHT22;27609;51.002;5.354;2022-07-29T05:43:44;17.80;99.90
41922;DHT22;27609;51.002;5.354;2022-07-29T05:46:10;17.90;99.90
41922;DHT22;27609;51.002;5.354;2022-07-29T05:48:36;18.00;99.90
41922;DHT22;27609;51.002;5.354;2022-07-29T05:51:05;18.10;99.90
41922;DHT22;27609;51.002;5.354;2022-07-29T05:53:31;18.20;99.90
41922;DHT22;27609;51.002;5.354;2022-07-29T05:55:57;18.30;99.90
41922;DHT22;27609;51.002;5.354;2022-07-29T05:58:23;18.40;99.90
41922;DHT22;27609;51.002;5.354;2022-07-29T06:00:49;18.40;99.90
41922;DHT22;27609;51.002;5.354;2022-07-29T06:03:15;18.60;99.90
41922;DHT22;27609;51.002;5.354;2022-07-29T06:05:41;18.80;99.90
41922;DHT22;27609;51.002;5.354;2022-07-29T06:08:07;19.20;99.90
41922;DHT22;27609;51.002;5.354;2022-07-29T06:10:34;20.00;99.90
41922;DHT22;27609;51.002;5.354;2022-07-29T06:13:00;20.60;99.90
41922;DHT22;27609;51.002;5.354;2022-07-29T06:15:26;21.30;99.90
41922;DHT22;27609;51.002;5.354;2022-07-29T06:17:52;21.70;99.90
41922;DHT22;27609;51.002;5.354;2022-07-29T06:20:18;21.80;99.90
41922;DHT22;27609;51.002;5.354;2022-07-29T06:22:44;21.40;99.90
41922;DHT22;27609;51.002;5.354;2022-07-29T06:25:11;21.60;99.90
41922;DHT22;27609;51.002;5.354;2022-07-29T06:27:37;21.60;99.90
41922;DHT22;27609;51.002;5.354;2022-07-29T06:30:04;22.10;99.90
41922;DHT22;27609;51.002;5.354;2022-07-29T06:32:33;22.60;99.90
41922;DHT22;27609;51.002;5.354;2022-07-29T06:34:59;22.80;99.90
41922;DHT22;27609;51.002;5.354;2022-07-29T06:37:25;22.60;99.90
41922;DHT22;27609;51.002;5.354;2022-07-29T06:39:50;22.70;99.90
41922;DHT22;27609;51.002;5.354;2022-07-29T06:42:36;22.90;99.90
41922;DHT22;27609;51.002;5.354;2022-07-29T06:45:03;23.80;99.90
41922;DHT22;27609;51.002;5.354;2022-07-29T06:47:29;24.20;99.90
41922;DHT22;27609;51.002;5.354;2022-07-29T06:49:54;24.70;99.90
41922;DHT22;27609;51.002;5.354;2022-07-29T06:52:20;25.00;99.90
41922;DHT22;27609;51.002;5.354;2022-07-29T06:54:46;25.20;99.90
41922;DHT22;27609;51.002;5.354;2022-07-29T06:57:13;26.10;99.90
41922;DHT22;27609;51.002;5.354;2022-07-29T06:59:39;27.10;99.90
41922;DHT22;27609;51.002;5.354;2022-07-29T07:02:05;27.40;99.90
41922;DHT22;27609;51.002;5.354;2022-07-29T07:04:31;26.60;99.90
41922;DHT22;27609;51.002;5.354;2022-07-29T07:06:57;27.50;99.90
41922;DHT22;27609;51.002;5.354;2022-07-29T07:09:24;27.90;99.90
41922;DHT22;27609;51.002;5.354;2022-07-29T07:11:50;28.60;99.90
41922;DHT22;27609;51.002;5.354;2022-07-29T07:14:16;28.50;99.70
41922;DHT22;27609;51.002;5.354;2022-07-29T07:16:42;29.30;98.50
41922;DHT22;27609;51.002;5.354;2022-07-29T07:19:08;29.20;98.50
41922;DHT22;27609;51.002;5.354;2022-07-29T07:21:34;29.10;97.80
41922;DHT22;27609;51.002;5.354;2022-07-29T07:23:59;29.20;97.30
41922;DHT22;27609;51.002;5.354;2022-07-29T07:26:26;29.00;98.40
41922;DHT22;27609;51.002;5.354;2022-07-29T07:28:52;29.40;97.80
41922;DHT22;27609;51.002;5.354;2022-07-29T07:31:18;29.10;98.40
41922;DHT22;27609;51.002;5.354;2022-07-29T07:33:44;29.00;98.00
41922;DHT22;27609;51.002;5.354;2022-07-29T07:36:10;29.80;97.20
41922;DHT22;27609;51.002;5.354;2022-07-29T07:38:36;28.60;98.00
41922;DHT22;27609;51.002;5.354;2022-07-29T07:41:02;29.30;96.50
41922;DHT22;27609;51.002;5.354;2022-07-29T07:43:27;30.70;95.30
41922;DHT22;27609;51.002;5.354;2022-07-29T07:45:53;31.70;93.00
41922;DHT22;27609;51.002;5.354;2022-07-29T07:48:19;31.40;93.30
41922;DHT22;27609;51.002;5.354;2022-07-29T07:50:46;31.80;92.80
41922;DHT22;27609;51.002;5.354;2022-07-29T07:53:12;30.50;93.90
41922;DHT22;27609;51.002;5.354;2022-07-29T07:55:41;31.70;92.40
41922;DHT22;27609;51.002;5.354;2022-07-29T07:58:08;32.10;91.20
41922;DHT22;27609;51.002;5.354;2022-07-29T08:00:34;31.80;91.90
41922;DHT22;27609;51.002;5.354;2022-07-29T08:03:00;32.60;91.70
41922;DHT22;27609;51.002;5.354;2022-07-29T08:05:26;32.60;90.80
41922;DHT22;27609;51.002;5.354;2022-07-29T08:07:52;33.40;90.20
41922;DHT22;27609;51.002;5.354;2022-07-29T08:10:18;33.90;87.30
41922;DHT22;27609;51.002;5.354;2022-07-29T08:13:05;34.70;86.30
41922;DHT22;27609;51.002;5.354;2022-07-29T08:15:32;35.10;85.00
41922;DHT22;27609;51.002;5.354;2022-07-29T08:17:58;32.20;90.10
41922;DHT22;27609;51.002;5.354;2022-07-29T08:20:24;33.00;88.10
41922;DHT22;27609;51.002;5.354;2022-07-29T08:22:51;34.40;84.90
41922;DHT22;27609;51.002;5.354;2022-07-29T08:25:18;35.20;83.70
41922;DHT22;27609;51.002;5.354;2022-07-29T08:27:46;35.50;82.60
41922;DHT22;27609;51.002;5.354;2022-07-29T08:30:13;36.40;80.20
41922;DHT22;27609;51.002;5.354;2022-07-29T08:32:40;35.60;79.00
41922;DHT22;27609;51.002;5.354;2022-07-29T08:35:06;33.90;82.90
41922;DHT22;27609;51.002;5.354;2022-07-29T08:37:32;35.50;81.40
41922;DHT22;27609;51.002;5.354;2022-07-29T08:39:58;35.60;81.90
41922;DHT22;27609;51.002;5.354;2022-07-29T08:42:24;35.90;81.60
41922;DHT22;27609;51.002;5.354;2022-07-29T08:44:50;36.60;79.40
41922;DHT22;27609;51.002;5.354;2022-07-29T08:47:16;35.90;79.30
41922;DHT22;27609;51.002;5.354;2022-07-29T08:49:43;36.90;80.00
41922;DHT22;27609;51.002;5.354;2022-07-29T08:52:11;35.10;80.20
41922;DHT22;27609;51.002;5.354;2022-07-29T08:54:39;34.60;82.60
41922;DHT22;27609;51.002;5.354;2022-07-29T08:57:06;35.50;82.00
41922;DHT22;27609;51.002;5.354;2022-07-29T08:59:34;37.90;77.10
41922;DHT22;27609;51.002;5.354;2022-07-29T09:02:01;38.00;76.30
41922;DHT22;27609;51.002;5.354;2022-07-29T09:04:30;38.10;73.70
41922;DHT22;27609;51.002;5.354;2022-07-29T09:07:00;36.00;76.20
41922;DHT22;27609;51.002;5.354;2022-07-29T09:09:28;36.80;76.50
41922;DHT22;27609;51.002;5.354;2022-07-29T09:11:54;37.20;75.80
41922;DHT22;27609;51.002;5.354;2022-07-29T09:14:20;35.60;77.60
41922;DHT22;27609;51.002;5.354;2022-07-29T09:16:56;36.30;78.20
41922;DHT22;27609;51.002;5.354;2022-07-29T09:19:26;37.40;74.10
41922;DHT22;27609;51.002;5.354;2022-07-29T09:21:53;38.00;74.10
41922;DHT22;27609;51.002;5.354;2022-07-29T09:24:27;38.00;74.10
41922;DHT22;27609;51.002;5.354;2022-07-29T09:27:01;37.20;72.50
41922;DHT22;27609;51.002;5.354;2022-07-29T09:29:27;36.40;73.50
41922;DHT22;27609;51.002;5.354;2022-07-29T09:31:54;36.90;72.80
41922;DHT22;27609;51.002;5.354;2022-07-29T09:34:27;35.20;77.00
41922;DHT22;27609;51.002;5.354;2022-07-29T09:36:55;34.90;76.50
41922;DHT22;27609;51.002;5.354;2022-07-29T09:39:33;36.50;75.90
41922;DHT22;27609;51.002;5.354;2022-07-29T09:42:04;37.50;72.80
41922;DHT22;27609;51.002;5.354;2022-07-29T09:44:49;38.60;70.50
41922;DHT22;27609;51.002;5.354;2022-07-29T09:47:18;39.10;69.70
41922;DHT22;27609;51.002;5.354;2022-07-29T09:49:56;39.70;68.40
41922;DHT22;27609;51.002;5.354;2022-07-29T09:52:29;40.90;67.50
41922;DHT22;27609;51.002;5.354;2022-07-29T09:55:09;41.40;63.20
41922;DHT22;27609;51.002;5.354;2022-07-29T09:57:38;41.20;63.90
41922;DHT22;27609;51.002;5.354;2022-07-29T10:00:09;40.30;64.60
41922;DHT22;27609;51.002;5.354;2022-07-29T10:02:38;39.50;64.40
41922;DHT22;27609;51.002;5.354;2022-07-29T10:05:09;38.70;65.90
41922;DHT22;27609;51.002;5.354;2022-07-29T10:07:46;40.70;63.90
41922;DHT22;27609;51.002;5.354;2022-07-29T10:10:19;40.70;63.40
41922;DHT22;27609;51.002;5.354;2022-07-29T10:15:16;35.90;68.90
41922;DHT22;27609;51.002;5.354;2022-07-29T10:17:44;36.90;69.50
41922;DHT22;27609;51.002;5.354;2022-07-29T10:20:10;38.90;64.60
41922;DHT22;27609;51.002;5.354;2022-07-29T10:22:36;40.20;62.50
41922;DHT22;27609;51.002;5.354;2022-07-29T10:25:02;41.30;60.30
41922;DHT22;27609;51.002;5.354;2022-07-29T10:27:28;39.60;61.40
41922;DHT22;27609;51.002;5.354;2022-07-29T10:29:54;40.00;63.50
41922;DHT22;27609;51.002;5.354;2022-07-29T10:35:19;42.00;59.30
41922;DHT22;27609;51.002;5.354;2022-07-29T10:43:46;44.80;56.10
41922;DHT22;27609;51.002;5.354;2022-07-29T10:46:13;44.50;57.10
41922;DHT22;27609;51.002;5.354;2022-07-29T10:54:37;45.90;54.40
41922;DHT22;27609;51.002;5.354;2022-07-29T10:59:52;38.30;60.50
41922;DHT22;27609;51.002;5.354;2022-07-29T11:05:13;37.00;61.80
41922;DHT22;27609;51.002;5.354;2022-07-29T11:08:16;39.00;60.70
41922;DHT22;27609;51.002;5.354;2022-07-29T11:10:26;37.60;62.40
41922;DHT22;27609;51.002;5.354;2022-07-29T11:12:52;39.20;60.80
41922;DHT22;27609;51.002;5.354;2022-07-29T11:15:22;36.50;60.60
41922;DHT22;27609;51.002;5.354;2022-07-29T11:20:44;40.90;58.10
41922;DHT22;27609;51.002;5.354;2022-07-29T11:29:03;40.30;56.80
41922;DHT22;27609;51.002;5.354;2022-07-29T11:31:34;41.30;58.00
41922;DHT22;27609;51.002;5.354;2022-07-29T11:34:38;42.10;57.00
41922;DHT22;27609;51.002;5.354;2022-07-29T11:45:14;40.70;58.20
41922;DHT22;27609;51.002;5.354;2022-07-29T11:47:49;39.40;57.30
41922;DHT22;27609;51.002;5.354;2022-07-29T11:50:35;41.00;58.00
41922;DHT22;27609;51.002;5.354;2022-07-29T11:53:03;42.70;56.00
41922;DHT22;27609;51.002;5.354;2022-07-29T11:55:29;43.60;56.30
41922;DHT22;27609;51.002;5.354;2022-07-29T11:57:59;43.70;55.80
41922;DHT22;27609;51.002;5.354;2022-07-29T12:00:29;41.70;56.00
41922;DHT22;27609;51.002;5.354;2022-07-29T12:02:56;39.40;58.40
41922;DHT22;27609;51.002;5.354;2022-07-29T12:05:31;37.50;61.30
41922;DHT22;27609;51.002;5.354;2022-07-29T12:08:05;36.20;64.00
41922;DHT22;27609;51.002;5.354;2022-07-29T12:10:31;35.30;62.40
41922;DHT22;27609;51.002;5.354;2022-07-29T12:12:58;34.50;65.60
41922;DHT22;27609;51.002;5.354;2022-07-29T12:15:24;36.30;61.90
41922;DHT22;27609;51.002;5.354;2022-07-29T12:17:52;35.90;63.10
41922;DHT22;27609;51.002;5.354;2022-07-29T12:20:26;37.10;60.30
41922;DHT22;27609;51.002;5.354;2022-07-29T12:22:53;38.60;61.70
41922;DHT22;27609;51.002;5.354;2022-07-29T12:25:22;38.50;59.60
41922;DHT22;27609;51.002;5.354;2022-07-29T12:28:02;37.40;61.40
41922;DHT22;27609;51.002;5.354;2022-07-29T12:30:46;36.30;62.10
41922;DHT22;27609;51.002;5.354;2022-07-29T12:33:22;36.50;60.40
41922;DHT22;27609;51.002;5.354;2022-07-29T12:35:51;38.20;59.20
41922;DHT22;27609;51.002;5.354;2022-07-29T12:38:18;37.70;57.70
41922;DHT22;27609;51.002;5.354;2022-07-29T12:40:45;35.80;60.60
41922;DHT22;27609;51.002;5.354;2022-07-29T12:43:19;35.90;63.00
41922;DHT22;27609;51.002;5.354;2022-07-29T12:45:50;35.60;62.70
41922;DHT22;27609;51.002;5.354;2022-07-29T12:48:16;38.70;58.50
41922;DHT22;27609;51.002;5.354;2022-07-29T12:50:57;39.30;56.80
41922;DHT22;27609;51.002;5.354;2022-07-29T12:53:23;40.10;58.20
41922;DHT22;27609;51.002;5.354;2022-07-29T12:55:55;37.60;58.70
41922;DHT22;27609;51.002;5.354;2022-07-29T13:01:05;39.90;57.30
41922;DHT22;27609;51.002;5.354;2022-07-29T13:03:52;40.70;55.10
41922;DHT22;27609;51.002;5.354;2022-07-29T13:06:33;41.10;55.60
41922;DHT22;27609;51.002;5.354;2022-07-29T13:09:10;42.30;54.40
41922;DHT22;27609;51.002;5.354;2022-07-29T13:11:44;41.30;57.30
41922;DHT22;27609;51.002;5.354;2022-07-29T13:17:05;42.00;55.70
41922;DHT22;27609;51.002;5.354;2022-07-29T13:19:40;41.00;55.90
41922;DHT22;27609;51.002;5.354;2022-07-29T13:22:11;40.10;56.70
41922;DHT22;27609;51.002;5.354;2022-07-29T13:27:23;37.60;57.60
41922;DHT22;27609;51.002;5.354;2022-07-29T13:29:50;36.60;58.70
41922;DHT22;27609;51.002;5.354;2022-07-29T13:32:28;35.90;58.70
41922;DHT22;27609;51.002;5.354;2022-07-29T13:34:55;33.30;62.10
41922;DHT22;27609;51.002;5.354;2022-07-29T13:37:22;33.80;62.40
41922;DHT22;27609;51.002;5.354;2022-07-29T13:39:48;33.60;61.10
41922;DHT22;27609;51.002;5.354;2022-07-29T13:42:14;33.00;61.50
41922;DHT22;27609;51.002;5.354;2022-07-29T13:44:40;33.40;63.50
41922;DHT22;27609;51.002;5.354;2022-07-29T13:47:07;33.60;62.50
41922;DHT22;27609;51.002;5.354;2022-07-29T13:49:34;32.60;63.00
41922;DHT22;27609;51.002;5.354;2022-07-29T13:52:01;33.70;61.70
41922;DHT22;27609;51.002;5.354;2022-07-29T13:54:27;35.10;60.10
41922;DHT22;27609;51.002;5.354;2022-07-29T13:56:53;34.60;61.00
41922;DHT22;27609;51.002;5.354;2022-07-29T13:59:19;34.40;62.90
41922;DHT22;27609;51.002;5.354;2022-07-29T14:01:45;34.50;59.70
41922;DHT22;27609;51.002;5.354;2022-07-29T14:04:11;34.60;62.50
41922;DHT22;27609;51.002;5.354;2022-07-29T14:06:37;34.50;60.20
41922;DHT22;27609;51.002;5.354;2022-07-29T14:09:04;34.50;60.70
41922;DHT22;27609;51.002;5.354;2022-07-29T14:11:35;34.60;57.40
41922;DHT22;27609;51.002;5.354;2022-07-29T14:14:01;33.20;59.70
41922;DHT22;27609;51.002;5.354;2022-07-29T14:16:27;32.30;60.00
41922;DHT22;27609;51.002;5.354;2022-07-29T14:18:53;32.30;65.60
41922;DHT22;27609;51.002;5.354;2022-07-29T14:21:19;32.20;66.60
41922;DHT22;27609;51.002;5.354;2022-07-29T14:23:45;32.70;65.50
41922;DHT22;27609;51.002;5.354;2022-07-29T14:26:10;33.00;61.70
41922;DHT22;27609;51.002;5.354;2022-07-29T14:28:36;32.70;62.90
41922;DHT22;27609;51.002;5.354;2022-07-29T14:31:02;32.20;63.90
41922;DHT22;27609;51.002;5.354;2022-07-29T14:33:28;32.30;64.70
41922;DHT22;27609;51.002;5.354;2022-07-29T14:35:54;32.20;64.50
41922;DHT22;27609;51.002;5.354;2022-07-29T14:38:20;32.50;65.80
41922;DHT22;27609;51.002;5.354;2022-07-29T14:40:46;32.10;64.80
41922;DHT22;27609;51.002;5.354;2022-07-29T14:43:13;31.60;64.50
41922;DHT22;27609;51.002;5.354;2022-07-29T14:45:39;31.30;66.60
41922;DHT22;27609;51.002;5.354;2022-07-29T14:48:06;31.00;66.10
41922;DHT22;27609;51.002;5.354;2022-07-29T14:50:32;30.90;70.20
41922;DHT22;27609;51.002;5.354;2022-07-29T14:52:59;30.80;68.50
41922;DHT22;27609;51.002;5.354;2022-07-29T14:55:25;30.70;71.50
41922;DHT22;27609;51.002;5.354;2022-07-29T14:57:51;30.70;69.30
41922;DHT22;27609;51.002;5.354;2022-07-29T15:00:17;30.70;69.90
41922;DHT22;27609;51.002;5.354;2022-07-29T15:02:43;30.90;66.90
41922;DHT22;27609;51.002;5.354;2022-07-29T15:05:09;30.90;67.90
41922;DHT22;27609;51.002;5.354;2022-07-29T15:07:35;30.90;71.20
41922;DHT22;27609;51.002;5.354;2022-07-29T15:10:01;30.80;66.30
41922;DHT22;27609;51.002;5.354;2022-07-29T15:12:27;30.60;69.90
41922;DHT22;27609;51.002;5.354;2022-07-29T15:14:53;30.20;68.30
41922;DHT22;27609;51.002;5.354;2022-07-29T15:17:20;29.80;66.80
41922;DHT22;27609;51.002;5.354;2022-07-29T15:19:46;29.90;70.90
41922;DHT22;27609;51.002;5.354;2022-07-29T15:22:12;29.80;69.70
41922;DHT22;27609;51.002;5.354;2022-07-29T15:24:38;30.00;68.60
41922;DHT22;27609;51.002;5.354;2022-07-29T15:27:05;30.10;69.20
41922;DHT22;27609;51.002;5.354;2022-07-29T15:29:31;30.60;70.80
41922;DHT22;27609;51.002;5.354;2022-07-29T15:31:57;31.10;67.80
41922;DHT22;27609;51.002;5.354;2022-07-29T15:34:23;31.60;66.90
41922;DHT22;27609;51.002;5.354;2022-07-29T15:36:52;31.80;66.40
41922;DHT22;27609;51.002;5.354;2022-07-29T15:39:18;31.70;67.40
41922;DHT22;27609;51.002;5.354;2022-07-29T15:41:44;31.20;67.10
41922;DHT22;27609;51.002;5.354;2022-07-29T15:44:10;31.20;67.00
41922;DHT22;27609;51.002;5.354;2022-07-29T15:46:36;30.90;69.70
41922;DHT22;27609;51.002;5.354;2022-07-29T15:49:21;30.40;70.40
41922;DHT22;27609;51.002;5.354;2022-07-29T15:51:47;30.10;68.90
41922;DHT22;27609;51.002;5.354;2022-07-29T15:54:13;29.90;67.00
41922;DHT22;27609;51.002;5.354;2022-07-29T15:56:39;29.90;66.70
41922;DHT22;27609;51.002;5.354;2022-07-29T15:59:05;29.80;67.30
41922;DHT22;27609;51.002;5.354;2022-07-29T16:01:31;29.50;68.80
41922;DHT22;27609;51.002;5.354;2022-07-29T16:03:57;29.60;69.00
41922;DHT22;27609;51.002;5.354;2022-07-29T16:06:23;29.50;70.40
41922;DHT22;27609;51.002;5.354;2022-07-29T16:08:49;29.30;70.10
41922;DHT22;27609;51.002;5.354;2022-07-29T16:11:15;29.10;69.70
41922;DHT22;27609;51.002;5.354;2022-07-29T16:13:41;29.10;71.00
41922;DHT22;27609;51.002;5.354;2022-07-29T16:16:07;29.10;69.30
41922;DHT22;27609;51.002;5.354;2022-07-29T16:18:33;29.30;72.70
41922;DHT22;27609;51.002;5.354;2022-07-29T16:20:59;29.00;71.30
41922;DHT22;27609;51.002;5.354;2022-07-29T16:23:25;29.00;71.50
41922;DHT22;27609;51.002;5.354;2022-07-29T16:25:51;28.90;70.60
41922;DHT22;27609;51.002;5.354;2022-07-29T16:28:17;28.70;70.20
41922;DHT22;27609;51.002;5.354;2022-07-29T16:30:43;28.50;70.80
41922;DHT22;27609;51.002;5.354;2022-07-29T16:33:09;28.40;72.20
41922;DHT22;27609;51.002;5.354;2022-07-29T16:35:35;28.20;71.40
41922;DHT22;27609;51.002;5.354;2022-07-29T16:38:04;28.50;71.30
41922;DHT22;27609;51.002;5.354;2022-07-29T16:40:31;28.00;71.10